Cosco Aden — VRKF9 — position and weather

sailwx.info

Track history (hours):
 
Tides and Currents Weather Stations Pressure Air Temp Water Temp Dewpoint Dewpoint Depression Visibility Wind Speed Wind Dir Waves Ship Positions

Cosco Aden

Last reported at 2016-Aug-26 03:13 UTC. Time now 2016-Aug-31 04:27 UTC.
Position N 30°29' E 122°40'.

Length 261 m; draft 10.7 m.

Type: Other ship. MMSI: 477765900.

Date/timePositionNaut miles runAvg speedWind from/ knotsBaromVisibWave heightAir tempDewpointWater temp
2016-Aug-26 03:13N 30°29' E 122°40'6 8.8
2016-Aug-26 02:33N 30°26' E 122°46'8 8.1
2016-Aug-26 01:33N 30°19' E 122°49'17 8.2
2016-Aug-25 23:31N 30°02' E 122°49'9 8.2
2016-Aug-25 22:25N 29°55' E 122°43'7 8.6
2016-Aug-25 21:33N 29°50' E 122°37'9 9.4
2016-Aug-25 20:33N 29°44' E 122°28'9 8.7
2016-Aug-25 19:33N 29°45' E 122°18'1211.7
2016-Aug-25 18:33N 29°54' E 122°10'6 1.9
2016-Aug-25 15:22N 29°53' E 122°03'0 0.0
2016-Aug-25 09:22N 29°53' E 122°02'0 0.0
2016-Aug-25 02:32N 29°53' E 122°03'5 4.7
2016-Aug-25 01:33N 29°55' E 122°07'1010.3
2016-Aug-25 00:33N 29°48' E 122°16'10 9.7
2016-Aug-24 23:31N 29°43' E 122°26'7 7.4
2016-Aug-24 22:33N 29°38' E 122°32'9 8.8
2016-Aug-24 21:31N 29°29' E 122°32'9 9.2
2016-Aug-24 20:30N 29°20' E 122°32'8 8.6
2016-Aug-24 19:33N 29°12' E 122°31'10 8.7
2016-Aug-24 18:22N 29°02' E 122°28'74 8.4
2016-Aug-24 09:33N 27°54' E 121°55'21110.3
2016-Aug-23 13:11N 25°01' E 119°42'1212.5
2016-Aug-23 12:12N 24°52' E 119°32'711.6
2016-Aug-23 11:33N 24°48' E 119°25'1111.0
2016-Aug-23 10:33N 24°40' E 119°17'1010.1
2016-Aug-23 09:33N 24°33' E 119°09'10 9.8
2016-Aug-23 08:33N 24°27' E 119°00'10 9.7
2016-Aug-23 07:33N 24°20' E 118°53'9 9.4
2016-Aug-23 06:33N 24°14' E 118°45'10 9.6
2016-Aug-23 05:33N 24°08' E 118°37'1110.5
2016-Aug-23 04:32N 24°01' E 118°28'1111.2
2016-Aug-23 03:33N 23°54' E 118°19'1612.1
2016-Aug-23 02:13N 23°43' E 118°06'1014.3
2016-Aug-23 01:33N 23°36' E 117°58'7813.0
2016-Aug-22 19:33N 22°50' E 116°50'1414.3
2016-Aug-22 18:33N 22°42' E 116°38'5614.1
2016-Aug-22 14:33N 22°17' E 115°43'7012.9
2016-Aug-22 09:07N 22°07' E 114°28'1 1.3
2016-Aug-22 08:33N 22°07' E 114°27'22 9.7
2016-Aug-22 06:16N 22°17' E 114°06'3 3.2
2016-Aug-22 05:19N 22°20' E 114°08'0 0.0
2016-Aug-22 04:31N 22°20' E 114°08'0 0.0
2016-Aug-22 03:31N 22°20' E 114°08'0 0.0
2016-Aug-22 02:31N 22°20' E 114°08'0 0.0
2016-Aug-22 01:25N 22°20' E 114°08'0 0.1
2016-Aug-22 00:25N 22°20' E 114°08'0 0.1
2016-Aug-21 23:31N 22°20' E 114°08'0 0.0
2016-Aug-21 22:07N 22°20' E 114°08'0 0.0
2016-Aug-21 21:19N 22°20' E 114°08'0 0.0
2016-Aug-21 20:25N 22°20' E 114°08'0 0.1
2016-Aug-21 19:33N 22°20' E 114°08'3 3.3
2016-Aug-21 18:33N 22°17' E 114°05'4 4.5
2016-Aug-21 17:33N 22°22' E 114°03'1010.1
2016-Aug-21 16:33N 22°25' E 113°53'3 2.5
2016-Aug-21 15:33N 22°27' E 113°54'0 0.0
2016-Aug-21 14:33N 22°27' E 113°54'0 0.0
2016-Aug-21 13:33N 22°27' E 113°54'0 0.0
2016-Aug-21 12:33N 22°27' E 113°54'0 0.0
2016-Aug-21 11:33N 22°27' E 113°54'0 0.0
2016-Aug-21 10:33N 22°27' E 113°54'0 0.0
2016-Aug-21 09:33N 22°27' E 113°54'0 0.0
2016-Aug-21 08:33N 22°27' E 113°54'0 0.0
2016-Aug-21 07:27N 22°27' E 113°54'0 0.0
2016-Aug-21 06:15N 22°27' E 113°54'0 0.0
2016-Aug-21 05:33N 22°27' E 113°54'0 0.0
2016-Aug-21 04:33N 22°27' E 113°54'15 7.3
2016-Aug-21 02:33N 22°18' E 114°06'1511.2
2016-Aug-21 01:12N 22°08' E 114°18'813.0
2016-Aug-21 00:33N 22°07' E 114°27'136 9.7
2016-Aug-20 10:33N 22°17' E 116°53'17010.6
2016-Aug-19 18:27N 22°32' E 119°57'1011.3
2016-Aug-19 17:33N 22°32' E 120°08'1110.6
2016-Aug-19 16:33N 22°33' E 120°19'1 0.3
2016-Aug-19 11:29N 22°34' E 120°18'0 0.0
2016-Aug-19 10:29N 22°34' E 120°18'0 0.0
2016-Aug-19 09:23N 22°34' E 120°18'0 0.0
2016-Aug-19 08:29N 22°34' E 120°18'0 0.0
2016-Aug-19 07:29N 22°34' E 120°18'0 0.0
2016-Aug-19 06:29N 22°34' E 120°18'0 0.0
2016-Aug-19 05:29N 22°34' E 120°18'1 1.3
2016-Aug-19 04:30N 22°33' E 120°19'6 6.3
2016-Aug-19 03:33N 22°33' E 120°12'  
Track history (hours):
 
Tides and Currents Weather Stations Pressure Air Temp Water Temp Dewpoint Dewpoint Depression Visibility Wind Speed Wind Dir Waves Ship Positions

Cosco Aden

Last reported at 2016-Aug-26 03:13 UTC. Time now 2016-Aug-31 04:27 UTC.
Position N 30°29' E 122°40'.

Length 261 m; draft 10.7 m.

Type: Other ship. MMSI: 477765900.

Date/timePositionNaut miles runAvg speedWind from/ knotsBaromVisibWave heightAir tempDewpointWater temp
2016-Aug-26 03:13N 30°29' E 122°40'6 8.8
2016-Aug-26 02:33N 30°26' E 122°46'8 8.1
2016-Aug-26 01:33N 30°19' E 122°49'17 8.2
2016-Aug-25 23:31N 30°02' E 122°49'9 8.2
2016-Aug-25 22:25N 29°55' E 122°43'7 8.6
2016-Aug-25 21:33N 29°50' E 122°37'9 9.4
2016-Aug-25 20:33N 29°44' E 122°28'9 8.7
2016-Aug-25 19:33N 29°45' E 122°18'1211.7
2016-Aug-25 18:33N 29°54' E 122°10'6 1.9
2016-Aug-25 15:22N 29°53' E 122°03'0 0.0
2016-Aug-25 09:22N 29°53' E 122°02'0 0.0
2016-Aug-25 02:32N 29°53' E 122°03'5 4.7
2016-Aug-25 01:33N 29°55' E 122°07'1010.3
2016-Aug-25 00:33N 29°48' E 122°16'10 9.7
2016-Aug-24 23:31N 29°43' E 122°26'7 7.4
2016-Aug-24 22:33N 29°38' E 122°32'9 8.8
2016-Aug-24 21:31N 29°29' E 122°32'9 9.2
2016-Aug-24 20:30N 29°20' E 122°32'8 8.6
2016-Aug-24 19:33N 29°12' E 122°31'10 8.7
2016-Aug-24 18:22N 29°02' E 122°28'74 8.4
2016-Aug-24 09:33N 27°54' E 121°55'21110.3
2016-Aug-23 13:11N 25°01' E 119°42'1212.5
2016-Aug-23 12:12N 24°52' E 119°32'711.6
2016-Aug-23 11:33N 24°48' E 119°25'1111.0
2016-Aug-23 10:33N 24°40' E 119°17'1010.1
2016-Aug-23 09:33N 24°33' E 119°09'10 9.8
2016-Aug-23 08:33N 24°27' E 119°00'10 9.7
2016-Aug-23 07:33N 24°20' E 118°53'9 9.4
2016-Aug-23 06:33N 24°14' E 118°45'10 9.6
2016-Aug-23 05:33N 24°08' E 118°37'1110.5
2016-Aug-23 04:32N 24°01' E 118°28'1111.2
2016-Aug-23 03:33N 23°54' E 118°19'1612.1
2016-Aug-23 02:13N 23°43' E 118°06'1014.3
2016-Aug-23 01:33N 23°36' E 117°58'7813.0
2016-Aug-22 19:33N 22°50' E 116°50'1414.3
2016-Aug-22 18:33N 22°42' E 116°38'5614.1
2016-Aug-22 14:33N 22°17' E 115°43'7012.9
2016-Aug-22 09:07N 22°07' E 114°28'1 1.3
2016-Aug-22 08:33N 22°07' E 114°27'22 9.7
2016-Aug-22 06:16N 22°17' E 114°06'3 3.2
2016-Aug-22 05:19N 22°20' E 114°08'0 0.0
2016-Aug-22 04:31N 22°20' E 114°08'0 0.0
2016-Aug-22 03:31N 22°20' E 114°08'0 0.0
2016-Aug-22 02:31N 22°20' E 114°08'0 0.0
2016-Aug-22 01:25N 22°20' E 114°08'0 0.1
2016-Aug-22 00:25N 22°20' E 114°08'0 0.1
2016-Aug-21 23:31N 22°20' E 114°08'0 0.0
2016-Aug-21 22:07N 22°20' E 114°08'0 0.0
2016-Aug-21 21:19N 22°20' E 114°08'0 0.0
2016-Aug-21 20:25N 22°20' E 114°08'0 0.1
2016-Aug-21 19:33N 22°20' E 114°08'3 3.3
2016-Aug-21 18:33N 22°17' E 114°05'4 4.5
2016-Aug-21 17:33N 22°22' E 114°03'1010.1
2016-Aug-21 16:33N 22°25' E 113°53'3 2.5
2016-Aug-21 15:33N 22°27' E 113°54'0 0.0
2016-Aug-21 14:33N 22°27' E 113°54'0 0.0
2016-Aug-21 13:33N 22°27' E 113°54'0 0.0
2016-Aug-21 12:33N 22°27' E 113°54'0 0.0
2016-Aug-21 11:33N 22°27' E 113°54'0 0.0
2016-Aug-21 10:33N 22°27' E 113°54'0 0.0
2016-Aug-21 09:33N 22°27' E 113°54'0 0.0
2016-Aug-21 08:33N 22°27' E 113°54'0 0.0
2016-Aug-21 07:27N 22°27' E 113°54'0 0.0
2016-Aug-21 06:15N 22°27' E 113°54'0 0.0
2016-Aug-21 05:33N 22°27' E 113°54'0 0.0
2016-Aug-21 04:33N 22°27' E 113°54'15 7.3
2016-Aug-21 02:33N 22°18' E 114°06'1511.2
2016-Aug-21 01:12N 22°08' E 114°18'813.0
2016-Aug-21 00:33N 22°07' E 114°27'136 9.7
2016-Aug-20 10:33N 22°17' E 116°53'17010.6
2016-Aug-19 18:27N 22°32' E 119°57'1011.3
2016-Aug-19 17:33N 22°32' E 120°08'1110.6
2016-Aug-19 16:33N 22°33' E 120°19'1 0.3
2016-Aug-19 11:29N 22°34' E 120°18'0 0.0
2016-Aug-19 10:29N 22°34' E 120°18'0 0.0
2016-Aug-19 09:23N 22°34' E 120°18'0 0.0
2016-Aug-19 08:29N 22°34' E 120°18'0 0.0
2016-Aug-19 07:29N 22°34' E 120°18'0 0.0
2016-Aug-19 06:29N 22°34' E 120°18'0 0.0
2016-Aug-19 05:29N 22°34' E 120°18'1 1.3
2016-Aug-19 04:30N 22°33' E 120°19'6 6.3
2016-Aug-19 03:33N 22°33' E 120°12'  

Dump ship's entire track history